sensor_id;sensor_type;location;lat;lon;timestamp;P1;durP1;ratioP1;P2;durP2;ratioP2
16975;SDS011;8604;48.148;-1.786;2023-04-06T00:01:32;26.67;;;21.63;;
16975;SDS011;8604;48.148;-1.786;2023-04-06T00:04:02;24.73;;;20.50;;
16975;SDS011;8604;48.148;-1.786;2023-04-06T00:06:33;25.47;;;21.00;;
16975;SDS011;8604;48.148;-1.786;2023-04-06T00:09:02;25.73;;;21.60;;
16975;SDS011;8604;48.148;-1.786;2023-04-06T00:11:32;23.17;;;19.53;;
16975;SDS011;8604;48.148;-1.786;2023-04-06T00:14:01;24.80;;;20.27;;
16975;SDS011;8604;48.148;-1.786;2023-04-06T00:16:29;29.07;;;22.57;;
16975;SDS011;8604;48.148;-1.786;2023-04-06T00:18:59;25.40;;;21.20;;
16975;SDS011;8604;48.148;-1.786;2023-04-06T00:21:28;24.07;;;20.73;;
16975;SDS011;8604;48.148;-1.786;2023-04-06T00:23:57;25.17;;;20.93;;
16975;SDS011;8604;48.148;-1.786;2023-04-06T00:26:26;27.50;;;21.57;;
16975;SDS011;8604;48.148;-1.786;2023-04-06T00:28:56;24.30;;;20.73;;
16975;SDS011;8604;48.148;-1.786;2023-04-06T00:31:26;26.37;;;21.33;;
16975;SDS011;8604;48.148;-1.786;2023-04-06T00:33:57;25.07;;;21.27;;
16975;SDS011;8604;48.148;-1.786;2023-04-06T00:36:27;22.87;;;19.57;;
16975;SDS011;8604;48.148;-1.786;2023-04-06T00:38:56;26.03;;;21.30;;
16975;SDS011;8604;48.148;-1.786;2023-04-06T00:41:25;24.03;;;19.57;;
16975;SDS011;8604;48.148;-1.786;2023-04-06T00:43:54;23.73;;;20.30;;
16975;SDS011;8604;48.148;-1.786;2023-04-06T00:46:23;26.53;;;20.27;;
16975;SDS011;8604;48.148;-1.786;2023-04-06T00:48:53;22.77;;;19.70;;
16975;SDS011;8604;48.148;-1.786;2023-04-06T00:51:23;32.43;;;25.90;;
16975;SDS011;8604;48.148;-1.786;2023-04-06T00:53:53;31.43;;;25.43;;
16975;SDS011;8604;48.148;-1.786;2023-04-06T00:56:23;25.90;;;22.03;;
16975;SDS011;8604;48.148;-1.786;2023-04-06T00:58:53;30.17;;;23.80;;
16975;SDS011;8604;48.148;-1.786;2023-04-06T01:01:23;28.83;;;23.27;;
16975;SDS011;8604;48.148;-1.786;2023-04-06T01:03:56;28.40;;;23.90;;
16975;SDS011;8604;48.148;-1.786;2023-04-06T01:06:26;28.23;;;22.37;;
16975;SDS011;8604;48.148;-1.786;2023-04-06T01:08:59;27.17;;;21.37;;
16975;SDS011;8604;48.148;-1.786;2023-04-06T01:11:28;26.83;;;22.50;;
16975;SDS011;8604;48.148;-1.786;2023-04-06T01:13:59;23.97;;;20.17;;
16975;SDS011;8604;48.148;-1.786;2023-04-06T01:16:40;26.60;;;20.77;;
16975;SDS011;8604;48.148;-1.786;2023-04-06T01:19:13;25.63;;;21.43;;
16975;SDS011;8604;48.148;-1.786;2023-04-06T01:21:47;25.50;;;20.27;;
16975;SDS011;8604;48.148;-1.786;2023-04-06T01:24:38;25.03;;;20.80;;
16975;SDS011;8604;48.148;-1.786;2023-04-06T01:27:16;25.90;;;20.67;;
16975;SDS011;8604;48.148;-1.786;2023-04-06T01:30:03;24.40;;;19.60;;
16975;SDS011;8604;48.148;-1.786;2023-04-06T01:32:49;22.47;;;19.30;;
16975;SDS011;8604;48.148;-1.786;2023-04-06T01:35:30;25.47;;;20.70;;
16975;SDS011;8604;48.148;-1.786;2023-04-06T01:38:10;26.10;;;21.20;;
16975;SDS011;8604;48.148;-1.786;2023-04-06T01:40:39;26.00;;;21.90;;
16975;SDS011;8604;48.148;-1.786;2023-04-06T01:43:08;26.30;;;21.50;;
16975;SDS011;8604;48.148;-1.786;2023-04-06T01:45:51;24.13;;;20.50;;
16975;SDS011;8604;48.148;-1.786;2023-04-06T01:48:22;28.73;;;22.87;;
16975;SDS011;8604;48.148;-1.786;2023-04-06T01:50:50;25.77;;;21.07;;
16975;SDS011;8604;48.148;-1.786;2023-04-06T01:53:24;23.57;;;19.93;;
16975;SDS011;8604;48.148;-1.786;2023-04-06T01:56:00;26.03;;;20.60;;
16975;SDS011;8604;48.148;-1.786;2023-04-06T01:58:32;23.77;;;20.57;;
16975;SDS011;8604;48.148;-1.786;2023-04-06T02:01:02;27.63;;;22.17;;
16975;SDS011;8604;48.148;-1.786;2023-04-06T02:03:42;24.67;;;20.33;;
16975;SDS011;8604;48.148;-1.786;2023-04-06T02:06:11;23.90;;;20.10;;
16975;SDS011;8604;48.148;-1.786;2023-04-06T02:08:40;26.50;;;21.90;;
16975;SDS011;8604;48.148;-1.786;2023-04-06T02:11:10;26.17;;;20.83;;
16975;SDS011;8604;48.148;-1.786;2023-04-06T02:13:44;25.73;;;21.23;;
16975;SDS011;8604;48.148;-1.786;2023-04-06T02:16:15;25.30;;;20.73;;
16975;SDS011;8604;48.148;-1.786;2023-04-06T02:18:45;25.90;;;20.17;;
16975;SDS011;8604;48.148;-1.786;2023-04-06T02:21:17;24.47;;;20.13;;
16975;SDS011;8604;48.148;-1.786;2023-04-06T02:23:46;24.00;;;19.43;;
16975;SDS011;8604;48.148;-1.786;2023-04-06T02:26:18;26.00;;;19.77;;
16975;SDS011;8604;48.148;-1.786;2023-04-06T02:28:46;23.40;;;20.10;;
16975;SDS011;8604;48.148;-1.786;2023-04-06T02:31:17;23.77;;;19.33;;
16975;SDS011;8604;48.148;-1.786;2023-04-06T02:33:47;23.77;;;19.00;;
16975;SDS011;8604;48.148;-1.786;2023-04-06T02:36:16;24.57;;;19.80;;
16975;SDS011;8604;48.148;-1.786;2023-04-06T02:38:44;25.07;;;20.47;;
16975;SDS011;8604;48.148;-1.786;2023-04-06T02:41:18;24.50;;;19.20;;
16975;SDS011;8604;48.148;-1.786;2023-04-06T02:43:46;23.47;;;18.97;;
16975;SDS011;8604;48.148;-1.786;2023-04-06T02:46:29;23.33;;;18.50;;
16975;SDS011;8604;48.148;-1.786;2023-04-06T02:48:58;22.53;;;17.77;;
16975;SDS011;8604;48.148;-1.786;2023-04-06T02:51:29;22.37;;;18.07;;
16975;SDS011;8604;48.148;-1.786;2023-04-06T02:54:11;22.93;;;16.87;;
16975;SDS011;8604;48.148;-1.786;2023-04-06T02:56:41;20.80;;;16.73;;
16975;SDS011;8604;48.148;-1.786;2023-04-06T02:59:10;21.17;;;16.67;;
16975;SDS011;8604;48.148;-1.786;2023-04-06T03:01:44;21.00;;;17.50;;
16975;SDS011;8604;48.148;-1.786;2023-04-06T03:04:12;19.63;;;16.23;;
16975;SDS011;8604;48.148;-1.786;2023-04-06T03:06:41;20.63;;;16.03;;
16975;SDS011;8604;48.148;-1.786;2023-04-06T03:09:19;19.50;;;15.20;;
16975;SDS011;8604;48.148;-1.786;2023-04-06T03:11:50;20.47;;;14.93;;
16975;SDS011;8604;48.148;-1.786;2023-04-06T03:14:20;19.43;;;15.83;;
16975;SDS011;8604;48.148;-1.786;2023-04-06T03:16:49;16.97;;;14.23;;
16975;SDS011;8604;48.148;-1.786;2023-04-06T03:19:20;18.77;;;14.50;;
16975;SDS011;8604;48.148;-1.786;2023-04-06T03:21:50;16.93;;;13.60;;
16975;SDS011;8604;48.148;-1.786;2023-04-06T03:24:19;15.40;;;12.97;;
16975;SDS011;8604;48.148;-1.786;2023-04-06T03:26:52;17.80;;;13.60;;
16975;SDS011;8604;48.148;-1.786;2023-04-06T03:29:21;17.43;;;13.77;;
16975;SDS011;8604;48.148;-1.786;2023-04-06T03:31:50;16.27;;;12.90;;
16975;SDS011;8604;48.148;-1.786;2023-04-06T03:34:39;15.63;;;12.43;;
16975;SDS011;8604;48.148;-1.786;2023-04-06T03:37:07;17.53;;;12.87;;
16975;SDS011;8604;48.148;-1.786;2023-04-06T03:39:43;14.33;;;12.00;;
16975;SDS011;8604;48.148;-1.786;2023-04-06T03:42:18;14.60;;;12.07;;
16975;SDS011;8604;48.148;-1.786;2023-04-06T03:44:53;14.63;;;11.67;;
16975;SDS011;8604;48.148;-1.786;2023-04-06T03:47:22;14.07;;;11.47;;
16975;SDS011;8604;48.148;-1.786;2023-04-06T03:49:53;13.27;;;10.87;;
16975;SDS011;8604;48.148;-1.786;2023-04-06T03:52:22;16.33;;;12.07;;
16975;SDS011;8604;48.148;-1.786;2023-04-06T03:54:51;13.93;;;10.50;;
16975;SDS011;8604;48.148;-1.786;2023-04-06T03:57:21;12.57;;;10.80;;
16975;SDS011;8604;48.148;-1.786;2023-04-06T03:59:50;12.83;;;10.73;;
16975;SDS011;8604;48.148;-1.786;2023-04-06T04:02:18;14.40;;;10.87;;
16975;SDS011;8604;48.148;-1.786;2023-04-06T04:04:47;13.17;;;10.90;;
16975;SDS011;8604;48.148;-1.786;2023-04-06T04:07:15;13.40;;;11.57;;
16975;SDS011;8604;48.148;-1.786;2023-04-06T04:09:44;12.70;;;10.80;;
16975;SDS011;8604;48.148;-1.786;2023-04-06T04:12:13;13.27;;;10.13;;
16975;SDS011;8604;48.148;-1.786;2023-04-06T04:14:44;12.77;;;10.00;;
16975;SDS011;8604;48.148;-1.786;2023-04-06T04:17:13;15.73;;;11.20;;
16975;SDS011;8604;48.148;-1.786;2023-04-06T04:19:41;14.73;;;10.90;;
16975;SDS011;8604;48.148;-1.786;2023-04-06T04:22:10;11.40;;;9.80;;
16975;SDS011;8604;48.148;-1.786;2023-04-06T04:24:40;13.33;;;10.13;;
16975;SDS011;8604;48.148;-1.786;2023-04-06T04:27:09;13.70;;;10.57;;
16975;SDS011;8604;48.148;-1.786;2023-04-06T04:29:39;13.27;;;10.17;;
16975;SDS011;8604;48.148;-1.786;2023-04-06T04:32:11;14.17;;;9.87;;
16975;SDS011;8604;48.148;-1.786;2023-04-06T04:34:40;12.07;;;10.00;;
16975;SDS011;8604;48.148;-1.786;2023-04-06T04:37:16;12.80;;;9.93;;
16975;SDS011;8604;48.148;-1.786;2023-04-06T04:39:49;15.40;;;10.30;;
16975;SDS011;8604;48.148;-1.786;2023-04-06T04:42:17;11.77;;;9.20;;
16975;SDS011;8604;48.148;-1.786;2023-04-06T04:44:50;13.27;;;9.47;;
16975;SDS011;8604;48.148;-1.786;2023-04-06T04:47:31;12.30;;;9.50;;
16975;SDS011;8604;48.148;-1.786;2023-04-06T04:50:00;12.33;;;9.50;;
16975;SDS011;8604;48.148;-1.786;2023-04-06T04:52:29;11.43;;;8.57;;
16975;SDS011;8604;48.148;-1.786;2023-04-06T04:55:20;11.60;;;8.80;;
16975;SDS011;8604;48.148;-1.786;2023-04-06T04:57:52;10.43;;;8.80;;
16975;SDS011;8604;48.148;-1.786;2023-04-06T05:00:29;11.03;;;9.10;;
16975;SDS011;8604;48.148;-1.786;2023-04-06T05:03:00;13.47;;;8.80;;
16975;SDS011;8604;48.148;-1.786;2023-04-06T05:05:32;12.87;;;9.17;;
16975;SDS011;8604;48.148;-1.786;2023-04-06T05:08:01;10.70;;;8.50;;
16975;SDS011;8604;48.148;-1.786;2023-04-06T05:10:42;11.63;;;8.33;;
16975;SDS011;8604;48.148;-1.786;2023-04-06T05:13:11;10.33;;;8.07;;
16975;SDS011;8604;48.148;-1.786;2023-04-06T05:15:39;11.57;;;8.40;;
16975;SDS011;8604;48.148;-1.786;2023-04-06T05:18:24;11.73;;;8.30;;
16975;SDS011;8604;48.148;-1.786;2023-04-06T05:20:54;10.77;;;8.60;;
16975;SDS011;8604;48.148;-1.786;2023-04-06T05:23:30;12.97;;;9.20;;
16975;SDS011;8604;48.148;-1.786;2023-04-06T05:26:01;12.70;;;9.57;;
16975;SDS011;8604;48.148;-1.786;2023-04-06T05:28:30;10.90;;;8.60;;
16975;SDS011;8604;48.148;-1.786;2023-04-06T05:31:01;11.77;;;8.80;;
16975;SDS011;8604;48.148;-1.786;2023-04-06T05:33:39;10.60;;;8.43;;
16975;SDS011;8604;48.148;-1.786;2023-04-06T05:36:11;12.23;;;9.30;;
16975;SDS011;8604;48.148;-1.786;2023-04-06T05:38:43;11.37;;;9.10;;
16975;SDS011;8604;48.148;-1.786;2023-04-06T05:41:30;12.10;;;9.20;;
16975;SDS011;8604;48.148;-1.786;2023-04-06T05:44:00;11.73;;;9.33;;
16975;SDS011;8604;48.148;-1.786;2023-04-06T05:46:43;10.93;;;9.00;;
16975;SDS011;8604;48.148;-1.786;2023-04-06T05:55:42;12.40;;;8.90;;
16975;SDS011;8604;48.148;-1.786;2023-04-06T05:58:44;11.63;;;8.80;;
16975;SDS011;8604;48.148;-1.786;2023-04-06T06:01:42;11.40;;;8.23;;
16975;SDS011;8604;48.148;-1.786;2023-04-06T06:05:10;11.73;;;8.53;;
16975;SDS011;8604;48.148;-1.786;2023-04-06T06:08:34;11.80;;;9.10;;
16975;SDS011;8604;48.148;-1.786;2023-04-06T06:12:50;12.53;;;8.40;;
16975;SDS011;8604;48.148;-1.786;2023-04-06T06:14:54;10.70;;;7.97;;
16975;SDS011;8604;48.148;-1.786;2023-04-06T06:18:04;10.57;;;8.20;;
16975;SDS011;8604;48.148;-1.786;2023-04-06T06:20:46;10.73;;;8.10;;
16975;SDS011;8604;48.148;-1.786;2023-04-06T06:23:43;13.30;;;8.33;;
16975;SDS011;8604;48.148;-1.786;2023-04-06T06:26:20;11.13;;;8.20;;
16975;SDS011;8604;48.148;-1.786;2023-04-06T06:28:53;11.83;;;8.70;;
16975;SDS011;8604;48.148;-1.786;2023-04-06T06:31:55;11.33;;;9.00;;
16975;SDS011;8604;48.148;-1.786;2023-04-06T06:34:33;11.20;;;8.27;;
16975;SDS011;8604;48.148;-1.786;2023-04-06T06:37:15;11.63;;;8.20;;
16975;SDS011;8604;48.148;-1.786;2023-04-06T06:43:55;11.53;;;8.57;;
16975;SDS011;8604;48.148;-1.786;2023-04-06T06:46:46;11.43;;;8.70;;
16975;SDS011;8604;48.148;-1.786;2023-04-06T06:49:21;12.30;;;8.27;;
16975;SDS011;8604;48.148;-1.786;2023-04-06T06:52:04;13.30;;;8.53;;
16975;SDS011;8604;48.148;-1.786;2023-04-06T06:54:47;13.37;;;9.13;;
16975;SDS011;8604;48.148;-1.786;2023-04-06T06:57:17;11.10;;;7.73;;
16975;SDS011;8604;48.148;-1.786;2023-04-06T06:59:48;11.23;;;7.80;;
16975;SDS011;8604;48.148;-1.786;2023-04-06T07:02:18;10.57;;;7.47;;
16975;SDS011;8604;48.148;-1.786;2023-04-06T07:04:47;9.77;;;7.93;;
16975;SDS011;8604;48.148;-1.786;2023-04-06T07:07:17;10.33;;;7.33;;
16975;SDS011;8604;48.148;-1.786;2023-04-06T07:09:45;11.13;;;7.53;;
16975;SDS011;8604;48.148;-1.786;2023-04-06T07:12:14;10.77;;;7.27;;
16975;SDS011;8604;48.148;-1.786;2023-04-06T07:14:43;10.23;;;8.00;;
16975;SDS011;8604;48.148;-1.786;2023-04-06T07:17:13;9.57;;;7.50;;
16975;SDS011;8604;48.148;-1.786;2023-04-06T07:19:42;9.40;;;7.63;;
16975;SDS011;8604;48.148;-1.786;2023-04-06T07:22:11;10.70;;;7.40;;
16975;SDS011;8604;48.148;-1.786;2023-04-06T07:24:40;10.27;;;7.60;;
16975;SDS011;8604;48.148;-1.786;2023-04-06T07:27:09;9.77;;;7.73;;
16975;SDS011;8604;48.148;-1.786;2023-04-06T07:29:38;10.10;;;7.33;;
16975;SDS011;8604;48.148;-1.786;2023-04-06T07:32:07;10.93;;;7.80;;
16975;SDS011;8604;48.148;-1.786;2023-04-06T07:34:38;11.43;;;8.30;;
16975;SDS011;8604;48.148;-1.786;2023-04-06T07:37:07;11.83;;;8.23;;
16975;SDS011;8604;48.148;-1.786;2023-04-06T07:39:35;11.03;;;7.80;;
16975;SDS011;8604;48.148;-1.786;2023-04-06T07:42:04;12.70;;;8.20;;
16975;SDS011;8604;48.148;-1.786;2023-04-06T07:44:33;11.43;;;8.10;;
16975;SDS011;8604;48.148;-1.786;2023-04-06T07:47:01;9.70;;;7.17;;
16975;SDS011;8604;48.148;-1.786;2023-04-06T07:49:30;10.27;;;8.00;;
16975;SDS011;8604;48.148;-1.786;2023-04-06T07:52:02;10.17;;;7.20;;
16975;SDS011;8604;48.148;-1.786;2023-04-06T07:54:32;10.90;;;7.40;;
16975;SDS011;8604;48.148;-1.786;2023-04-06T07:57:00;10.73;;;6.90;;
16975;SDS011;8604;48.148;-1.786;2023-04-06T07:59:29;9.50;;;6.80;;
16975;SDS011;8604;48.148;-1.786;2023-04-06T08:01:58;10.80;;;7.53;;
16975;SDS011;8604;48.148;-1.786;2023-04-06T08:04:28;10.30;;;7.07;;
16975;SDS011;8604;48.148;-1.786;2023-04-06T08:06:57;11.00;;;7.50;;
16975;SDS011;8604;48.148;-1.786;2023-04-06T08:09:27;12.23;;;8.23;;
16975;SDS011;8604;48.148;-1.786;2023-04-06T08:11:56;9.30;;;7.37;;
16975;SDS011;8604;48.148;-1.786;2023-04-06T08:14:25;11.77;;;8.03;;
16975;SDS011;8604;48.148;-1.786;2023-04-06T08:16:54;8.60;;;7.07;;
16975;SDS011;8604;48.148;-1.786;2023-04-06T08:19:24;10.07;;;6.70;;
16975;SDS011;8604;48.148;-1.786;2023-04-06T08:21:53;9.43;;;6.90;;
16975;SDS011;8604;48.148;-1.786;2023-04-06T08:24:22;11.03;;;7.47;;
16975;SDS011;8604;48.148;-1.786;2023-04-06T08:26:52;11.00;;;7.00;;
16975;SDS011;8604;48.148;-1.786;2023-04-06T08:29:21;9.87;;;7.00;;
16975;SDS011;8604;48.148;-1.786;2023-04-06T08:31:49;9.90;;;7.27;;
16975;SDS011;8604;48.148;-1.786;2023-04-06T08:34:18;9.70;;;6.73;;
16975;SDS011;8604;48.148;-1.786;2023-04-06T08:36:47;9.70;;;6.83;;
16975;SDS011;8604;48.148;-1.786;2023-04-06T08:39:16;10.40;;;6.80;;
16975;SDS011;8604;48.148;-1.786;2023-04-06T08:41:52;8.03;;;5.93;;
16975;SDS011;8604;48.148;-1.786;2023-04-06T08:44:23;9.40;;;5.93;;
16975;SDS011;8604;48.148;-1.786;2023-04-06T08:46:52;9.07;;;6.13;;
16975;SDS011;8604;48.148;-1.786;2023-04-06T08:49:21;6.87;;;5.43;;
16975;SDS011;8604;48.148;-1.786;2023-04-06T08:51:50;8.77;;;5.20;;
16975;SDS011;8604;48.148;-1.786;2023-04-06T08:54:19;6.90;;;4.77;;
16975;SDS011;8604;48.148;-1.786;2023-04-06T08:56:48;8.03;;;4.43;;
16975;SDS011;8604;48.148;-1.786;2023-04-06T08:59:18;6.93;;;4.57;;
16975;SDS011;8604;48.148;-1.786;2023-04-06T09:01:47;7.87;;;4.53;;
16975;SDS011;8604;48.148;-1.786;2023-04-06T09:04:16;7.07;;;4.67;;
16975;SDS011;8604;48.148;-1.786;2023-04-06T09:06:46;6.30;;;4.60;;
16975;SDS011;8604;48.148;-1.786;2023-04-06T09:09:16;8.17;;;4.70;;
16975;SDS011;8604;48.148;-1.786;2023-04-06T09:11:48;7.37;;;4.40;;
16975;SDS011;8604;48.148;-1.786;2023-04-06T09:17:04;8.77;;;5.40;;
16975;SDS011;8604;48.148;-1.786;2023-04-06T09:19:33;9.90;;;5.30;;
16975;SDS011;8604;48.148;-1.786;2023-04-06T09:22:12;10.00;;;5.80;;
16975;SDS011;8604;48.148;-1.786;2023-04-06T09:24:42;9.57;;;5.70;;
16975;SDS011;8604;48.148;-1.786;2023-04-06T09:27:11;9.83;;;5.97;;
16975;SDS011;8604;48.148;-1.786;2023-04-06T09:29:42;9.83;;;6.30;;
16975;SDS011;8604;48.148;-1.786;2023-04-06T09:32:12;10.47;;;6.50;;
16975;SDS011;8604;48.148;-1.786;2023-04-06T09:34:43;10.50;;;6.67;;
16975;SDS011;8604;48.148;-1.786;2023-04-06T09:37:17;9.43;;;6.37;;
16975;SDS011;8604;48.148;-1.786;2023-04-06T09:39:47;9.87;;;6.60;;
16975;SDS011;8604;48.148;-1.786;2023-04-06T09:42:23;10.20;;;6.80;;
16975;SDS011;8604;48.148;-1.786;2023-04-06T09:44:54;15.20;;;9.27;;
16975;SDS011;8604;48.148;-1.786;2023-04-06T09:47:22;11.47;;;7.70;;
16975;SDS011;8604;48.148;-1.786;2023-04-06T09:49:55;11.50;;;6.90;;
16975;SDS011;8604;48.148;-1.786;2023-04-06T09:52:26;10.73;;;6.83;;
16975;SDS011;8604;48.148;-1.786;2023-04-06T09:55:00;12.10;;;7.73;;
16975;SDS011;8604;48.148;-1.786;2023-04-06T09:57:32;8.73;;;6.30;;
16975;SDS011;8604;48.148;-1.786;2023-04-06T10:00:10;8.03;;;6.07;;
16975;SDS011;8604;48.148;-1.786;2023-04-06T10:02:45;8.83;;;5.90;;
16975;SDS011;8604;48.148;-1.786;2023-04-06T10:05:20;8.07;;;5.93;;
16975;SDS011;8604;48.148;-1.786;2023-04-06T10:07:55;6.20;;;4.27;;
16975;SDS011;8604;48.148;-1.786;2023-04-06T10:10:27;7.20;;;4.87;;
16975;SDS011;8604;48.148;-1.786;2023-04-06T10:12:57;7.20;;;4.80;;
16975;SDS011;8604;48.148;-1.786;2023-04-06T10:15:28;11.67;;;8.20;;
16975;SDS011;8604;48.148;-1.786;2023-04-06T10:17:57;10.63;;;7.10;;
16975;SDS011;8604;48.148;-1.786;2023-04-06T10:20:27;7.60;;;5.13;;
16975;SDS011;8604;48.148;-1.786;2023-04-06T10:23:09;5.13;;;4.20;;
16975;SDS011;8604;48.148;-1.786;2023-04-06T10:25:51;7.97;;;4.87;;
16975;SDS011;8604;48.148;-1.786;2023-04-06T10:28:20;7.27;;;4.43;;
16975;SDS011;8604;48.148;-1.786;2023-04-06T10:30:55;6.33;;;4.50;;
16975;SDS011;8604;48.148;-1.786;2023-04-06T10:33:25;6.17;;;4.27;;
16975;SDS011;8604;48.148;-1.786;2023-04-06T10:35:55;5.80;;;3.73;;
16975;SDS011;8604;48.148;-1.786;2023-04-06T10:38:32;5.13;;;3.60;;
16975;SDS011;8604;48.148;-1.786;2023-04-06T10:41:06;5.43;;;3.27;;
16975;SDS011;8604;48.148;-1.786;2023-04-06T10:43:36;6.07;;;3.40;;
16975;SDS011;8604;48.148;-1.786;2023-04-06T10:46:08;6.03;;;3.70;;
16975;SDS011;8604;48.148;-1.786;2023-04-06T10:48:37;4.93;;;3.47;;
16975;SDS011;8604;48.148;-1.786;2023-04-06T10:51:08;4.87;;;3.50;;
16975;SDS011;8604;48.148;-1.786;2023-04-06T10:53:37;4.97;;;3.17;;
16975;SDS011;8604;48.148;-1.786;2023-04-06T10:56:09;6.13;;;3.90;;
16975;SDS011;8604;48.148;-1.786;2023-04-06T10:58:43;7.00;;;3.93;;
16975;SDS011;8604;48.148;-1.786;2023-04-06T11:01:15;5.90;;;4.00;;
16975;SDS011;8604;48.148;-1.786;2023-04-06T11:03:44;6.63;;;3.70;;
16975;SDS011;8604;48.148;-1.786;2023-04-06T11:06:20;6.00;;;3.27;;
16975;SDS011;8604;48.148;-1.786;2023-04-06T11:08:50;4.43;;;3.40;;
16975;SDS011;8604;48.148;-1.786;2023-04-06T11:11:19;7.13;;;3.43;;
16975;SDS011;8604;48.148;-1.786;2023-04-06T11:13:49;4.70;;;3.10;;
16975;SDS011;8604;48.148;-1.786;2023-04-06T11:16:21;3.63;;;2.77;;
16975;SDS011;8604;48.148;-1.786;2023-04-06T11:18:55;4.33;;;3.20;;
16975;SDS011;8604;48.148;-1.786;2023-04-06T11:21:32;5.90;;;3.10;;
16975;SDS011;8604;48.148;-1.786;2023-04-06T11:24:09;4.70;;;3.10;;
16975;SDS011;8604;48.148;-1.786;2023-04-06T11:26:39;4.90;;;3.10;;
16975;SDS011;8604;48.148;-1.786;2023-04-06T11:29:08;5.00;;;3.27;;
16975;SDS011;8604;48.148;-1.786;2023-04-06T11:31:40;5.20;;;3.20;;
16975;SDS011;8604;48.148;-1.786;2023-04-06T11:34:10;5.87;;;3.13;;
16975;SDS011;8604;48.148;-1.786;2023-04-06T11:36:40;4.43;;;2.57;;
16975;SDS011;8604;48.148;-1.786;2023-04-06T11:39:09;4.17;;;2.80;;
16975;SDS011;8604;48.148;-1.786;2023-04-06T11:41:39;4.53;;;2.63;;
16975;SDS011;8604;48.148;-1.786;2023-04-06T11:44:07;5.27;;;2.60;;
16975;SDS011;8604;48.148;-1.786;2023-04-06T11:46:36;4.13;;;2.60;;
16975;SDS011;8604;48.148;-1.786;2023-04-06T11:49:06;4.07;;;2.30;;
16975;SDS011;8604;48.148;-1.786;2023-04-06T11:51:35;4.07;;;2.40;;
16975;SDS011;8604;48.148;-1.786;2023-04-06T11:54:04;4.93;;;2.60;;
16975;SDS011;8604;48.148;-1.786;2023-04-06T11:56:32;5.07;;;2.50;;
16975;SDS011;8604;48.148;-1.786;2023-04-06T11:59:01;4.97;;;2.47;;
16975;SDS011;8604;48.148;-1.786;2023-04-06T12:01:30;4.47;;;2.60;;
16975;SDS011;8604;48.148;-1.786;2023-04-06T12:04:04;3.37;;;2.50;;
16975;SDS011;8604;48.148;-1.786;2023-04-06T12:06:34;3.70;;;2.37;;
16975;SDS011;8604;48.148;-1.786;2023-04-06T12:09:03;5.63;;;2.53;;
16975;SDS011;8604;48.148;-1.786;2023-04-06T12:11:31;3.37;;;2.27;;
16975;SDS011;8604;48.148;-1.786;2023-04-06T12:14:00;4.00;;;2.40;;
16975;SDS011;8604;48.148;-1.786;2023-04-06T12:16:31;4.70;;;2.00;;
16975;SDS011;8604;48.148;-1.786;2023-04-06T12:19:00;3.60;;;1.90;;
16975;SDS011;8604;48.148;-1.786;2023-04-06T12:21:30;5.63;;;1.93;;
16975;SDS011;8604;48.148;-1.786;2023-04-06T12:48:07;11.03;;;7.37;;
16975;SDS011;8604;48.148;-1.786;2023-04-06T12:50:53;7.03;;;3.33;;
16975;SDS011;8604;48.148;-1.786;2023-04-06T12:53:28;5.20;;;2.27;;
16975;SDS011;8604;48.148;-1.786;2023-04-06T12:56:02;6.23;;;2.03;;
16975;SDS011;8604;48.148;-1.786;2023-04-06T12:58:39;4.77;;;2.00;;
16975;SDS011;8604;48.148;-1.786;2023-04-06T13:01:12;7.40;;;3.43;;
16975;SDS011;8604;48.148;-1.786;2023-04-06T13:03:51;8.37;;;3.97;;
16975;SDS011;8604;48.148;-1.786;2023-04-06T13:06:34;6.70;;;3.10;;
16975;SDS011;8604;48.148;-1.786;2023-04-06T13:09:15;7.20;;;2.00;;
16975;SDS011;8604;48.148;-1.786;2023-04-06T13:11:44;8.60;;;3.90;;
16975;SDS011;8604;48.148;-1.786;2023-04-06T13:14:15;6.10;;;2.33;;
16975;SDS011;8604;48.148;-1.786;2023-04-06T13:17:57;8.87;;;4.27;;
16975;SDS011;8604;48.148;-1.786;2023-04-06T13:21:12;4.77;;;1.77;;
16975;SDS011;8604;48.148;-1.786;2023-04-06T13:24:15;3.60;;;1.33;;
16975;SDS011;8604;48.148;-1.786;2023-04-06T16:34:15;11.87;;;3.97;;
16975;SDS011;8604;48.148;-1.786;2023-04-06T16:36:47;10.60;;;3.10;;
16975;SDS011;8604;48.148;-1.786;2023-04-06T16:39:15;10.23;;;3.43;;
16975;SDS011;8604;48.148;-1.786;2023-04-06T16:41:45;9.20;;;2.90;;
16975;SDS011;8604;48.148;-1.786;2023-04-06T16:44:14;9.17;;;3.20;;
16975;SDS011;8604;48.148;-1.786;2023-04-06T16:46:44;8.27;;;2.70;;
16975;SDS011;8604;48.148;-1.786;2023-04-06T16:53:53;11.27;;;3.47;;
16975;SDS011;8604;48.148;-1.786;2023-04-06T16:56:22;10.13;;;3.37;;
16975;SDS011;8604;48.148;-1.786;2023-04-06T16:59:05;12.00;;;4.10;;
16975;SDS011;8604;48.148;-1.786;2023-04-06T17:01:56;13.43;;;5.00;;
16975;SDS011;8604;48.148;-1.786;2023-04-06T17:05:06;9.60;;;2.70;;
16975;SDS011;8604;48.148;-1.786;2023-04-06T17:12:47;10.07;;;3.50;;
16975;SDS011;8604;48.148;-1.786;2023-04-06T17:21:57;10.33;;;2.80;;
16975;SDS011;8604;48.148;-1.786;2023-04-06T17:24:55;8.77;;;2.57;;
16975;SDS011;8604;48.148;-1.786;2023-04-06T17:29:15;8.80;;;2.83;;
16975;SDS011;8604;48.148;-1.786;2023-04-06T17:35:48;9.47;;;3.07;;
16975;SDS011;8604;48.148;-1.786;2023-04-06T17:39:06;9.83;;;3.67;;
16975;SDS011;8604;48.148;-1.786;2023-04-06T17:41:43;11.03;;;3.10;;
16975;SDS011;8604;48.148;-1.786;2023-04-06T17:44:36;10.07;;;2.87;;
16975;SDS011;8604;48.148;-1.786;2023-04-06T17:47:29;11.57;;;3.53;;
16975;SDS011;8604;48.148;-1.786;2023-04-06T17:50:08;11.80;;;3.70;;
16975;SDS011;8604;48.148;-1.786;2023-04-06T17:56:51;10.83;;;3.70;;
16975;SDS011;8604;48.148;-1.786;2023-04-06T17:59:23;9.57;;;2.73;;
16975;SDS011;8604;48.148;-1.786;2023-04-06T18:01:52;9.77;;;2.83;;
16975;SDS011;8604;48.148;-1.786;2023-04-06T18:04:23;10.13;;;3.40;;
16975;SDS011;8604;48.148;-1.786;2023-04-06T18:06:52;11.57;;;3.37;;
16975;SDS011;8604;48.148;-1.786;2023-04-06T18:09:21;11.87;;;4.53;;
16975;SDS011;8604;48.148;-1.786;2023-04-06T18:11:51;11.60;;;3.40;;
16975;SDS011;8604;48.148;-1.786;2023-04-06T18:14:23;10.27;;;3.43;;
16975;SDS011;8604;48.148;-1.786;2023-04-06T18:16:54;10.07;;;3.03;;
16975;SDS011;8604;48.148;-1.786;2023-04-06T18:19:23;9.93;;;2.80;;
16975;SDS011;8604;48.148;-1.786;2023-04-06T18:21:54;9.00;;;3.10;;
16975;SDS011;8604;48.148;-1.786;2023-04-06T18:24:24;12.10;;;2.80;;
16975;SDS011;8604;48.148;-1.786;2023-04-06T18:27:09;11.43;;;4.20;;
16975;SDS011;8604;48.148;-1.786;2023-04-06T18:29:40;12.87;;;3.70;;
16975;SDS011;8604;48.148;-1.786;2023-04-06T18:32:12;11.13;;;3.70;;
16975;SDS011;8604;48.148;-1.786;2023-04-06T18:34:43;13.27;;;4.53;;
16975;SDS011;8604;48.148;-1.786;2023-04-06T18:37:14;10.37;;;3.90;;
16975;SDS011;8604;48.148;-1.786;2023-04-06T18:39:43;12.33;;;4.53;;
16975;SDS011;8604;48.148;-1.786;2023-04-06T18:42:14;14.93;;;7.43;;
16975;SDS011;8604;48.148;-1.786;2023-04-06T18:44:43;14.60;;;5.83;;
16975;SDS011;8604;48.148;-1.786;2023-04-06T18:47:12;14.67;;;6.00;;
16975;SDS011;8604;48.148;-1.786;2023-04-06T18:49:42;13.00;;;4.90;;
16975;SDS011;8604;48.148;-1.786;2023-04-06T18:52:21;11.90;;;3.93;;
16975;SDS011;8604;48.148;-1.786;2023-04-06T18:55:00;11.80;;;3.70;;
16975;SDS011;8604;48.148;-1.786;2023-04-06T18:57:31;12.43;;;4.10;;
16975;SDS011;8604;48.148;-1.786;2023-04-06T19:00:02;11.83;;;5.40;;
16975;SDS011;8604;48.148;-1.786;2023-04-06T19:02:52;12.53;;;4.33;;
16975;SDS011;8604;48.148;-1.786;2023-04-06T19:05:54;12.87;;;4.43;;
16975;SDS011;8604;48.148;-1.786;2023-04-06T19:09:30;14.87;;;5.00;;
16975;SDS011;8604;48.148;-1.786;2023-04-06T19:38:13;11.07;;;3.07;;
16975;SDS011;8604;48.148;-1.786;2023-04-06T19:40:42;10.23;;;2.83;;
16975;SDS011;8604;48.148;-1.786;2023-04-06T19:43:10;10.10;;;2.73;;
16975;SDS011;8604;48.148;-1.786;2023-04-06T19:48:48;7.73;;;2.53;;
16975;SDS011;8604;48.148;-1.786;2023-04-06T19:51:16;10.53;;;2.60;;
16975;SDS011;8604;48.148;-1.786;2023-04-06T19:53:46;11.10;;;2.43;;
16975;SDS011;8604;48.148;-1.786;2023-04-06T19:56:15;9.87;;;2.47;;